createdAt,value
2018-09-11T00:01:25.207Z,4.40
2018-09-11T00:03:54.392Z,3.80
2018-09-11T00:06:23.592Z,3.33
2018-09-11T00:08:53.249Z,4.47
2018-09-11T00:11:22.448Z,3.73
2018-09-11T00:13:52.100Z,3.47
2018-09-11T00:16:21.300Z,4.10
2018-09-11T00:18:50.498Z,3.93
2018-09-11T00:21:19.725Z,3.40
2018-09-11T00:23:48.908Z,3.23
2018-09-11T00:26:18.113Z,3.97
2018-09-11T00:28:47.395Z,4.70
2018-09-11T00:31:16.576Z,3.73
2018-09-11T00:33:45.758Z,3.63
2018-09-11T00:36:15.080Z,3.83
2018-09-11T00:38:44.227Z,4.20
2018-09-11T00:41:13.648Z,3.90
2018-09-11T00:43:42.879Z,4.07
2018-09-11T00:46:12.100Z,4.00
2018-09-11T00:48:41.299Z,3.27
2018-09-11T00:51:10.504Z,3.23
2018-09-11T00:53:39.700Z,3.93
2018-09-11T00:56:08.886Z,4.07
2018-09-11T00:58:38.595Z,3.60
2018-09-11T01:01:07.923Z,3.90
2018-09-11T01:03:37.130Z,4.00
2018-09-11T01:06:06.355Z,4.13
2018-09-11T01:08:35.532Z,3.70
2018-09-11T01:11:05.006Z,4.07
2018-09-11T01:13:34.219Z,4.10
2018-09-11T01:16:03.471Z,4.40
2018-09-11T01:18:32.639Z,4.10
2018-09-11T01:21:02.076Z,4.27
2018-09-11T01:23:31.280Z,3.90
2018-09-11T01:26:00.458Z,4.67
2018-09-11T01:28:29.675Z,3.73
2018-09-11T01:30:58.866Z,4.47
2018-09-11T01:33:28.078Z,3.93
2018-09-11T01:35:57.392Z,4.40
2018-09-11T01:38:26.597Z,4.37
2018-09-11T01:40:55.802Z,4.63
2018-09-11T01:43:26.164Z,4.90
2018-09-11T01:45:55.358Z,3.93
2018-09-11T01:48:24.547Z,4.47
2018-09-11T01:50:53.756Z,4.60
2018-09-11T01:53:22.938Z,4.40
2018-09-11T01:55:52.170Z,4.43
2018-09-11T01:58:21.367Z,4.00
2018-09-11T02:00:50.550Z,3.90
2018-09-11T02:03:19.830Z,4.37
2018-09-11T02:05:49.139Z,4.00
2018-09-11T02:08:18.316Z,3.77
2018-09-11T02:10:47.495Z,4.20
2018-09-11T02:13:16.800Z,4.40
2018-09-11T02:15:46.103Z,4.70
2018-09-11T02:18:15.283Z,5.47
2018-09-11T02:20:44.491Z,4.70
2018-09-11T02:23:13.667Z,4.90
2018-09-11T02:25:42.863Z,4.47
2018-09-11T02:28:12.296Z,4.13
2018-09-11T02:30:41.478Z,5.23
2018-09-11T02:33:10.824Z,5.10
2018-09-11T02:35:40.120Z,4.60
2018-09-11T02:38:09.216Z,4.97
2018-09-11T02:40:38.423Z,4.50
2018-09-11T02:43:07.620Z,5.37
2018-09-11T02:45:36.787Z,5.10
2018-09-11T02:48:05.963Z,5.40
2018-09-11T02:50:35.406Z,4.90
2018-09-11T02:53:04.647Z,5.33
2018-09-11T02:55:33.827Z,5.20
2018-09-11T02:58:03.239Z,4.73
2018-09-11T03:00:32.447Z,4.67
2018-09-11T03:03:01.625Z,4.20
2018-09-11T03:05:31.391Z,4.40
2018-09-11T03:08:00.756Z,5.20
2018-09-11T03:10:29.940Z,5.00
2018-09-11T03:12:59.407Z,5.50
2018-09-11T03:15:28.971Z,4.90
2018-09-11T03:17:58.150Z,5.10
2018-09-11T03:20:27.394Z,5.60
2018-09-11T03:22:56.856Z,6.00
2018-09-11T03:25:26.945Z,5.17
2018-09-11T03:27:56.151Z,6.40
2018-09-11T03:30:25.344Z,5.40
2018-09-11T03:32:54.511Z,5.23
2018-09-11T03:35:23.785Z,4.97
2018-09-11T03:37:52.993Z,5.13
2018-09-11T03:40:22.256Z,5.40
2018-09-11T03:42:51.528Z,5.20
2018-09-11T03:45:20.722Z,5.60
2018-09-11T03:47:49.905Z,5.97
2018-09-11T03:50:19.155Z,5.20
2018-09-11T03:52:48.328Z,5.50
2018-09-11T03:55:17.504Z,5.50
2018-09-11T03:57:46.783Z,5.23
2018-09-11T04:00:15.955Z,5.93
2018-09-11T04:02:45.156Z,5.60
2018-09-11T04:05:14.421Z,4.90
2018-09-11T04:07:43.555Z,5.30
2018-09-11T04:10:12.739Z,5.20
2018-09-11T04:12:41.939Z,5.17
2018-09-11T04:15:11.116Z,5.77
2018-09-11T04:17:41.865Z,4.80
2018-09-11T04:20:11.280Z,4.73
2018-09-11T04:22:40.687Z,5.00
2018-09-11T04:25:09.907Z,5.33
2018-09-11T04:27:39.299Z,5.10
2018-09-11T04:30:08.628Z,5.03
2018-09-11T04:32:37.856Z,4.87
2018-09-11T04:35:07.151Z,4.50
2018-09-11T04:37:36.340Z,4.77
2018-09-11T04:40:05.635Z,4.50
2018-09-11T04:42:35.152Z,5.10
2018-09-11T04:45:04.408Z,5.00
2018-09-11T04:47:33.606Z,5.20
2018-09-11T04:50:03.128Z,5.50
2018-09-11T04:52:32.314Z,5.20
2018-09-11T04:55:01.527Z,5.93
2018-09-11T04:57:30.739Z,5.90
2018-09-11T05:00:00.200Z,5.33
2018-09-11T05:02:29.388Z,5.17
2018-09-11T05:04:59.067Z,6.10
2018-09-11T05:07:28.498Z,5.97
2018-09-11T05:09:57.695Z,5.37
2018-09-11T05:12:26.962Z,6.03
2018-09-11T05:14:56.144Z,6.90
2018-09-11T05:17:25.340Z,4.97
2018-09-11T05:19:55.368Z,5.70
2018-09-11T05:22:24.560Z,6.13
2018-09-11T05:24:53.740Z,5.53
2018-09-11T05:27:23.044Z,6.00
2018-09-11T05:29:52.363Z,5.23
2018-09-11T05:32:21.563Z,5.90
2018-09-11T05:34:50.803Z,5.37
2018-09-11T05:37:19.979Z,6.10
2018-09-11T05:39:49.159Z,6.50
2018-09-11T05:42:18.356Z,5.40
2018-09-11T05:44:47.556Z,5.77
2018-09-11T05:47:16.925Z,5.63
2018-09-11T05:49:46.168Z,6.27
2018-09-11T05:52:15.907Z,6.33
2018-09-11T05:54:45.219Z,6.20
2018-09-11T05:57:14.507Z,6.03
2018-09-11T05:59:43.683Z,5.97
2018-09-11T06:02:12.872Z,6.50
2018-09-11T06:04:42.132Z,5.93
2018-09-11T06:07:11.335Z,6.03
2018-09-11T06:09:40.568Z,7.10
2018-09-11T06:12:10.007Z,6.70
2018-09-11T06:14:39.187Z,6.50
2018-09-11T06:17:09.439Z,6.53
2018-09-11T06:19:38.640Z,6.13
2018-09-11T06:22:08.510Z,6.87
2018-09-11T06:24:37.706Z,6.13
2018-09-11T06:27:06.928Z,7.10
2018-09-11T06:29:36.136Z,6.70
2018-09-11T06:32:05.447Z,6.67
2018-09-11T06:34:35.148Z,6.80
2018-09-11T06:37:04.374Z,7.77
2018-09-11T06:39:33.763Z,7.03
2018-09-11T06:42:03.042Z,7.70
2018-09-11T06:44:32.249Z,7.70
2018-09-11T06:47:01.453Z,7.30
2018-09-11T06:49:30.644Z,7.27
2018-09-11T06:51:59.837Z,6.97
2018-09-11T06:54:29.123Z,6.90
2018-09-11T06:56:58.411Z,7.57
2018-09-11T06:59:27.629Z,7.90
2018-09-11T07:01:56.948Z,7.00
2018-09-11T07:04:26.003Z,7.17
2018-09-11T07:06:55.195Z,7.07
2018-09-11T07:09:24.368Z,6.90
2018-09-11T07:11:53.605Z,7.27
2018-09-11T07:14:22.864Z,7.60
2018-09-11T07:16:52.030Z,6.50
2018-09-11T07:19:21.620Z,7.80
2018-09-11T07:21:50.859Z,6.53
2018-09-11T07:24:20.763Z,7.17
2018-09-11T07:26:50.016Z,6.20
2018-09-11T07:29:19.255Z,6.60
2018-09-11T07:31:48.539Z,6.63
2018-09-11T07:34:17.772Z,6.13
2018-09-11T07:36:46.991Z,6.23
2018-09-11T07:39:16.195Z,6.27
2018-09-11T07:41:45.488Z,6.20
2018-09-11T07:44:14.679Z,6.40
2018-09-11T07:46:43.996Z,5.87
2018-09-11T07:49:13.195Z,6.23
2018-09-11T07:51:42.383Z,6.10
2018-09-11T07:54:11.591Z,5.47
2018-09-11T07:56:40.803Z,5.60
2018-09-11T07:59:10.029Z,6.00
2018-09-11T08:01:39.216Z,6.37
2018-09-11T08:04:08.726Z,4.47
2018-09-11T08:06:37.924Z,4.73
2018-09-11T08:09:09.784Z,4.27
2018-09-11T08:11:39.071Z,4.40
2018-09-11T08:14:08.559Z,5.13
2018-09-11T08:16:37.778Z,4.00
2018-09-11T08:19:06.976Z,5.40
2018-09-11T08:21:36.169Z,4.70
2018-09-11T08:24:05.436Z,4.53
2018-09-11T08:26:34.931Z,3.77
2018-09-11T08:29:04.175Z,3.63
2018-09-11T08:31:33.559Z,4.23
2018-09-11T08:34:02.775Z,3.40
2018-09-11T08:36:32.843Z,3.50
2018-09-11T08:39:02.052Z,3.30
2018-09-11T08:41:31.523Z,3.57
2018-09-11T08:44:00.701Z,3.33
2018-09-11T08:46:30.278Z,2.83
2018-09-11T08:48:59.404Z,3.77
2018-09-11T08:51:28.851Z,3.50
2018-09-11T08:53:58.047Z,3.00
2018-09-11T08:56:27.243Z,3.40
2018-09-11T08:58:56.430Z,2.40
2018-09-11T09:01:25.647Z,2.50
2018-09-11T09:03:54.837Z,1.87
2018-09-11T09:06:25.299Z,2.10
2018-09-11T09:08:54.580Z,2.00
2018-09-11T09:11:23.794Z,2.27
2018-09-11T09:13:53.003Z,1.93
2018-09-11T09:16:22.223Z,2.53
2018-09-11T09:18:51.395Z,2.10
2018-09-11T09:21:20.620Z,2.20
2018-09-11T09:23:49.824Z,2.57
2018-09-11T09:26:19.023Z,2.87
2018-09-11T09:28:48.703Z,2.30
2018-09-11T09:31:18.010Z,2.20
2018-09-11T09:33:47.372Z,2.53
2018-09-11T09:36:16.576Z,2.30
2018-09-11T09:38:45.827Z,2.40
2018-09-11T09:41:15.004Z,1.80
2018-09-11T09:43:44.208Z,2.60
2018-09-11T09:46:13.475Z,2.63
2018-09-11T09:48:42.671Z,2.23
2018-09-11T09:51:11.871Z,2.53
2018-09-11T09:53:41.123Z,2.60
2018-09-11T09:56:10.415Z,2.10
2018-09-11T09:58:39.623Z,2.50
2018-09-11T10:01:14.164Z,2.80
2018-09-11T10:03:43.372Z,2.77
2018-09-11T10:06:12.544Z,2.27
2018-09-11T10:08:41.775Z,2.33
2018-09-11T10:11:10.939Z,2.40
2018-09-11T10:13:40.132Z,2.57
2018-09-11T10:16:09.656Z,2.33
2018-09-11T10:18:38.840Z,2.90
2018-09-11T10:21:08.113Z,2.30
2018-09-11T10:23:37.379Z,2.40
2018-09-11T10:26:06.610Z,2.40
2018-09-11T10:28:35.795Z,2.40
2018-09-11T10:31:05.756Z,2.30
2018-09-11T10:33:34.982Z,2.80
2018-09-11T10:36:04.131Z,2.17
2018-09-11T10:38:33.987Z,2.00
2018-09-11T10:41:03.171Z,1.87
2018-09-11T10:43:32.429Z,1.90
2018-09-11T10:46:01.629Z,2.00
2018-09-11T10:48:30.894Z,2.33
2018-09-11T10:51:00.090Z,1.80
2018-09-11T10:53:29.404Z,2.10
2018-09-11T10:55:58.603Z,2.63
2018-09-11T10:58:27.850Z,2.40
2018-09-11T11:00:57.308Z,2.33
2018-09-11T11:03:26.531Z,2.03
2018-09-11T11:05:55.716Z,2.20
2018-09-11T11:08:24.939Z,2.20
2018-09-11T11:10:54.247Z,2.30
2018-09-11T11:13:23.623Z,2.33
2018-09-11T11:15:52.959Z,1.80
2018-09-11T11:18:22.288Z,2.10
2018-09-11T11:20:51.539Z,2.30
2018-09-11T11:23:20.935Z,1.90
2018-09-11T11:25:50.135Z,2.23
2018-09-11T11:28:19.316Z,1.97
2018-09-11T11:30:48.544Z,2.07
2018-09-11T11:33:18.061Z,1.63
2018-09-11T11:35:47.307Z,1.93
2018-09-11T11:38:16.568Z,2.23
2018-09-11T11:40:45.735Z,1.97
2018-09-11T11:43:15.078Z,2.13
2018-09-11T11:45:44.624Z,1.93
2018-09-11T11:48:13.815Z,1.80
2018-09-11T11:50:43.043Z,1.67
2018-09-11T11:53:12.295Z,1.83
2018-09-11T11:55:41.775Z,1.63
2018-09-11T11:58:11.019Z,2.20
2018-09-11T12:00:40.277Z,1.70
2018-09-11T12:03:09.592Z,2.00
2018-09-11T12:05:38.776Z,1.93
2018-09-11T12:08:08.625Z,1.80
2018-09-11T12:10:37.786Z,1.60
2018-09-11T12:13:07.328Z,1.83
2018-09-11T12:15:36.811Z,2.20
2018-09-11T12:18:06.051Z,2.13
2018-09-11T12:20:35.268Z,1.60
2018-09-11T12:23:04.502Z,2.10
2018-09-11T12:25:33.712Z,1.83
2018-09-11T12:28:04.176Z,1.90
2018-09-11T12:30:33.743Z,1.83
2018-09-11T12:33:03.000Z,1.87
2018-09-11T12:35:32.312Z,2.10
2018-09-11T12:38:01.516Z,2.00
2018-09-11T12:40:30.729Z,1.80
2018-09-11T12:42:59.906Z,1.80
2018-09-11T12:45:29.122Z,1.63
2018-09-11T12:47:58.805Z,2.00
2018-09-11T12:50:27.591Z,2.07
2018-09-11T12:52:57.152Z,2.00
2018-09-11T12:55:26.356Z,1.90
2018-09-11T12:57:55.564Z,1.70
2018-09-11T13:00:24.908Z,1.83
2018-09-11T13:02:54.112Z,2.10
2018-09-11T13:05:23.327Z,1.80
2018-09-11T13:07:52.696Z,1.97
2018-09-11T13:10:21.917Z,1.70
2018-09-11T13:12:51.111Z,1.77
2018-09-11T13:15:20.668Z,2.03
2018-09-11T13:17:49.867Z,2.00
2018-09-11T13:20:19.039Z,2.20
2018-09-11T13:22:48.268Z,1.77
2018-09-11T13:25:17.461Z,2.23
2018-09-11T13:27:46.780Z,1.70
2018-09-11T13:30:15.979Z,1.73
2018-09-11T13:32:45.161Z,1.30
2018-09-11T13:35:14.349Z,2.00
2018-09-11T13:37:44.559Z,2.10
2018-09-11T13:40:13.749Z,2.13
2018-09-11T13:42:42.915Z,2.47
2018-09-11T13:45:12.112Z,2.50
2018-09-11T13:47:41.359Z,2.43
2018-09-11T13:50:10.696Z,1.70
2018-09-11T13:52:40.252Z,2.10
2018-09-11T13:55:09.471Z,1.93
2018-09-11T13:57:38.823Z,2.77
2018-09-11T14:00:08.352Z,1.97
2018-09-11T14:02:37.621Z,2.23
2018-09-11T14:05:06.761Z,2.60
2018-09-11T14:07:36.026Z,2.10
2018-09-11T14:10:05.296Z,2.13
2018-09-11T14:12:34.496Z,2.30
2018-09-11T14:15:03.889Z,2.50
2018-09-11T14:17:34.420Z,2.40
2018-09-11T14:20:04.277Z,2.40
2018-09-11T14:22:33.471Z,2.30
2018-09-11T14:25:02.699Z,1.90
2018-09-11T14:27:31.921Z,2.30
2018-09-11T14:30:01.230Z,2.83
2018-09-11T14:32:30.540Z,2.50
2018-09-11T14:34:59.796Z,2.20
2018-09-11T14:37:28.983Z,2.03
2018-09-11T14:39:58.700Z,2.00
2018-09-11T14:42:28.292Z,2.23
2018-09-11T14:44:57.489Z,2.80
2018-09-11T14:47:30.911Z,2.50
2018-09-11T14:50:00.087Z,2.00
2018-09-11T14:52:29.374Z,1.80
2018-09-11T14:54:58.552Z,2.40
2018-09-11T14:57:27.747Z,2.83
2018-09-11T14:59:57.006Z,2.50
2018-09-11T15:02:26.631Z,2.20
2018-09-11T15:04:56.210Z,2.07
2018-09-11T15:07:25.519Z,2.07
2018-09-11T15:09:54.804Z,2.30
2018-09-11T15:12:23.989Z,2.63
2018-09-11T15:14:53.186Z,2.33
2018-09-11T15:17:23.620Z,2.50
2018-09-11T15:19:53.204Z,2.13
2018-09-11T15:22:22.529Z,2.40
2018-09-11T15:24:51.776Z,2.40
2018-09-11T15:27:21.133Z,2.10
2018-09-11T15:29:50.520Z,2.40
2018-09-11T15:32:21.981Z,2.63
2018-09-11T15:34:51.251Z,2.30
2018-09-11T15:37:20.428Z,2.50
2018-09-11T15:39:49.890Z,2.60
2018-09-11T15:42:19.067Z,2.13
2018-09-11T15:44:48.480Z,3.10
2018-09-11T15:47:17.808Z,2.30
2018-09-11T15:49:47.032Z,2.70
2018-09-11T15:52:16.479Z,2.47
2018-09-11T15:54:45.711Z,2.57
2018-09-11T15:57:14.883Z,2.47
2018-09-11T15:59:44.251Z,2.40
2018-09-11T16:02:15.873Z,2.30
2018-09-11T16:04:45.139Z,2.80
2018-09-11T16:07:14.619Z,2.47
2018-09-11T16:09:43.954Z,2.40
2018-09-11T16:12:13.142Z,2.33
2018-09-11T16:14:42.588Z,2.77
2018-09-11T16:17:11.940Z,2.60
2018-09-11T16:19:41.222Z,2.50
2018-09-11T16:22:10.437Z,2.50
2018-09-11T16:24:39.652Z,2.43
2018-09-11T16:27:08.876Z,2.53
2018-09-11T16:29:38.164Z,2.37
2018-09-11T16:32:08.932Z,2.23
2018-09-11T16:34:38.258Z,2.73
2018-09-11T16:37:07.452Z,2.53
2018-09-11T16:39:36.647Z,2.60
2018-09-11T16:42:06.347Z,2.63
2018-09-11T16:44:36.084Z,2.80
2018-09-11T16:47:05.803Z,2.87
2018-09-11T16:49:34.992Z,2.67
2018-09-11T16:52:04.308Z,2.97
2018-09-11T16:54:33.964Z,2.13
2018-09-11T16:57:03.413Z,2.30
2018-09-11T16:59:32.585Z,2.50
2018-09-11T17:02:01.930Z,2.57
2018-09-11T17:04:31.151Z,2.90
2018-09-11T17:07:00.339Z,2.77
2018-09-11T17:09:29.631Z,2.77
2018-09-11T17:11:58.813Z,3.00
2018-09-11T17:14:28.250Z,3.07
2018-09-11T17:16:57.728Z,3.10
2018-09-11T17:19:26.953Z,1.93
2018-09-11T17:21:56.681Z,3.20
2018-09-11T17:24:25.932Z,2.63
2018-09-11T17:26:55.119Z,2.77
2018-09-11T17:29:24.300Z,3.07
2018-09-11T17:31:53.515Z,2.97
2018-09-11T17:34:22.709Z,3.00
2018-09-11T17:36:51.936Z,3.03
2018-09-11T17:39:21.335Z,3.10
2018-09-11T17:41:50.613Z,3.30
2018-09-11T17:44:19.801Z,3.00
2018-09-11T17:46:49.480Z,2.73
2018-09-11T17:49:18.758Z,2.87
2018-09-11T17:51:48.019Z,4.10
2018-09-11T17:54:17.222Z,3.67
2018-09-11T17:56:46.406Z,2.87
2018-09-11T17:59:15.583Z,4.00
2018-09-11T18:01:44.983Z,3.73
2018-09-11T18:04:14.171Z,3.30
2018-09-11T18:06:43.539Z,3.23
2018-09-11T18:09:13.806Z,3.20
2018-09-11T18:11:43.029Z,3.10
2018-09-11T18:14:13.266Z,3.30
2018-09-11T18:16:42.480Z,3.47
2018-09-11T18:19:11.657Z,3.60
2018-09-11T18:21:40.971Z,3.40
2018-09-11T18:24:10.235Z,3.20
2018-09-11T18:26:39.441Z,3.70
2018-09-11T18:29:09.032Z,3.20
2018-09-11T18:31:39.485Z,3.20
2018-09-11T18:34:10.123Z,3.63
2018-09-11T18:36:39.502Z,3.30
2018-09-11T18:39:10.423Z,3.60
2018-09-11T18:41:40.164Z,4.43
2018-09-11T18:44:09.740Z,3.30
2018-09-11T18:46:39.018Z,3.30
2018-09-11T18:49:09.028Z,3.43
2018-09-11T18:51:38.798Z,4.10
2018-09-11T18:54:08.032Z,3.80
2018-09-11T18:56:37.211Z,3.43
2018-09-11T18:59:06.416Z,4.00
2018-09-11T19:01:35.667Z,4.43
2018-09-11T19:04:04.848Z,4.60
2018-09-11T19:06:34.072Z,3.37
2018-09-11T19:09:03.463Z,4.63
2018-09-11T19:11:32.636Z,3.77
2018-09-11T19:14:01.840Z,4.43
2018-09-11T19:16:31.069Z,4.13
2018-09-11T19:19:00.256Z,3.93
2018-09-11T19:21:29.431Z,3.97
2018-09-11T19:23:58.931Z,5.20
2018-09-11T19:26:28.105Z,4.00
2018-09-11T19:28:57.291Z,4.30
2018-09-11T19:31:26.839Z,4.33
2018-09-11T19:33:56.169Z,4.37
2018-09-11T19:36:25.505Z,3.87
2018-09-11T19:38:54.700Z,4.37
2018-09-11T19:41:23.879Z,4.03
2018-09-11T19:43:53.060Z,5.10
2018-09-11T19:46:22.340Z,4.70
2018-09-11T19:48:51.639Z,3.93
2018-09-11T19:51:20.830Z,4.03
2018-09-11T19:53:50.488Z,4.20
2018-09-11T19:56:20.511Z,4.30
2018-09-11T19:58:49.759Z,4.07
2018-09-11T20:01:18.928Z,3.43
2018-09-11T20:03:48.115Z,4.17
2018-09-11T20:06:17.420Z,3.50
2018-09-11T20:08:46.701Z,3.80
2018-09-11T20:11:17.252Z,4.10
2018-09-11T20:13:46.419Z,4.50
2018-09-11T20:16:15.708Z,4.57
2018-09-11T20:18:44.980Z,4.07
2018-09-11T20:21:14.145Z,4.33
2018-09-11T20:23:43.352Z,4.37
2018-09-11T20:26:12.523Z,4.30
2018-09-11T20:28:41.704Z,3.70
2018-09-11T20:31:10.924Z,4.80
2018-09-11T20:33:40.126Z,4.00
2018-09-11T20:36:09.325Z,3.47
2018-09-11T20:38:38.648Z,3.70
2018-09-11T20:41:07.891Z,3.50
2018-09-11T20:43:37.081Z,3.40
2018-09-11T20:46:06.283Z,2.93
2018-09-11T20:48:35.484Z,3.80
2018-09-11T20:51:05.310Z,3.60
2018-09-11T20:53:34.525Z,3.90
2018-09-11T20:56:03.805Z,4.00
2018-09-11T20:58:32.899Z,3.57
2018-09-11T21:01:02.283Z,3.23
2018-09-11T21:03:31.476Z,3.67
2018-09-11T21:06:00.656Z,3.70
2018-09-11T21:08:29.847Z,3.83
2018-09-11T21:10:59.024Z,4.00
2018-09-11T21:13:28.215Z,3.97
2018-09-11T21:15:57.431Z,3.93
2018-09-11T21:18:26.613Z,4.63
2018-09-11T21:20:55.791Z,3.60
2018-09-11T21:23:25.196Z,3.70
2018-09-11T21:25:54.375Z,3.80
2018-09-11T21:28:23.562Z,3.80
2018-09-11T21:30:52.768Z,3.83
2018-09-11T21:33:21.956Z,3.63
2018-09-11T21:35:51.159Z,4.23
2018-09-11T21:38:20.367Z,3.70
2018-09-11T21:40:49.688Z,3.43
2018-09-11T21:43:18.876Z,3.40
2018-09-11T21:45:48.389Z,3.80
2018-09-11T21:48:17.567Z,3.30
2018-09-11T21:50:46.751Z,4.03
2018-09-11T21:53:16.071Z,3.53
2018-09-11T21:55:45.247Z,3.70
2018-09-11T21:58:14.644Z,3.97
2018-09-11T22:00:49.276Z,4.20
2018-09-11T22:03:18.487Z,3.57
2018-09-11T22:05:47.729Z,3.30
2018-09-11T22:08:17.031Z,4.10
2018-09-11T22:10:46.368Z,4.07
2018-09-11T22:13:15.539Z,4.00
2018-09-11T22:15:44.787Z,3.80
2018-09-11T22:18:13.971Z,4.10
2018-09-11T22:20:43.163Z,4.43
2018-09-11T22:23:12.467Z,3.50
2018-09-11T22:25:41.655Z,3.50
2018-09-11T22:28:10.834Z,3.63
2018-09-11T22:30:40.078Z,3.80
2018-09-11T22:33:09.491Z,3.83
2018-09-11T22:35:38.678Z,4.00
2018-09-11T22:38:07.871Z,3.53
2018-09-11T22:40:37.089Z,3.60
2018-09-11T22:43:06.737Z,4.27
2018-09-11T22:45:37.651Z,4.37
2018-09-11T22:48:06.872Z,3.93
2018-09-11T22:50:36.119Z,3.73
2018-09-11T22:53:05.323Z,3.97
2018-09-11T22:55:35.501Z,4.33
2018-09-11T22:58:04.704Z,3.80
2018-09-11T23:00:33.927Z,4.53
2018-09-11T23:03:03.112Z,4.37
2018-09-11T23:05:32.541Z,5.20
2018-09-11T23:08:01.849Z,3.80
2018-09-11T23:10:31.028Z,3.87
2018-09-11T23:13:00.212Z,3.80
2018-09-11T23:15:29.440Z,4.30
2018-09-11T23:17:58.632Z,3.07
2018-09-11T23:20:27.815Z,4.10
2018-09-11T23:22:57.028Z,3.80
2018-09-11T23:25:26.328Z,3.70
2018-09-11T23:27:55.513Z,4.40
2018-09-11T23:30:25.187Z,3.30
2018-09-11T23:32:54.372Z,4.10
2018-09-11T23:35:23.556Z,4.80
2018-09-11T23:37:52.780Z,3.70
2018-09-11T23:40:21.947Z,3.93
2018-09-11T23:42:51.178Z,4.30
2018-09-11T23:45:20.412Z,5.00
2018-09-11T23:47:49.589Z,4.90
2018-09-11T23:50:18.786Z,4.00
2018-09-11T23:52:48.279Z,3.87
2018-09-11T23:55:17.468Z,4.10
2018-09-11T23:57:46.963Z,4.93
